sensor_id;sensor_type;location;lat;lon;timestamp;P1;durP1;ratioP1;P2;durP2;ratioP2
28862;SDS011;15994;51.796;13.006;2022-10-28T00:01:14;10.70;;;7.50;;
28862;SDS011;15994;51.796;13.006;2022-10-28T00:03:46;10.43;;;7.72;;
28862;SDS011;15994;51.796;13.006;2022-10-28T00:06:15;10.63;;;7.47;;
28862;SDS011;15994;51.796;13.006;2022-10-28T00:08:44;13.38;;;7.80;;
28862;SDS011;15994;51.796;13.006;2022-10-28T00:11:12;12.40;;;7.55;;
28862;SDS011;15994;51.796;13.006;2022-10-28T00:16:16;11.93;;;7.03;;
28862;SDS011;15994;51.796;13.006;2022-10-28T00:18:44;9.27;;;6.53;;
28862;SDS011;15994;51.796;13.006;2022-10-28T00:21:13;13.57;;;7.10;;
28862;SDS011;15994;51.796;13.006;2022-10-28T00:23:42;9.27;;;6.63;;
28862;SDS011;15994;51.796;13.006;2022-10-28T00:26:16;11.15;;;7.10;;
28862;SDS011;15994;51.796;13.006;2022-10-28T00:28:45;12.65;;;6.40;;
28862;SDS011;15994;51.796;13.006;2022-10-28T00:31:15;10.50;;;6.90;;
28862;SDS011;15994;51.796;13.006;2022-10-28T00:33:44;16.90;;;7.38;;
28862;SDS011;15994;51.796;13.006;2022-10-28T00:38:49;10.15;;;6.47;;
28862;SDS011;15994;51.796;13.006;2022-10-28T00:41:18;12.55;;;6.68;;
28862;SDS011;15994;51.796;13.006;2022-10-28T00:43:48;12.80;;;7.32;;
28862;SDS011;15994;51.796;13.006;2022-10-28T00:49:05;10.48;;;6.63;;
28862;SDS011;15994;51.796;13.006;2022-10-28T00:51:43;10.65;;;6.78;;
28862;SDS011;15994;51.796;13.006;2022-10-28T00:54:12;12.75;;;6.97;;
28862;SDS011;15994;51.796;13.006;2022-10-28T00:56:42;10.10;;;6.90;;
28862;SDS011;15994;51.796;13.006;2022-10-28T00:59:18;10.15;;;6.50;;
28862;SDS011;15994;51.796;13.006;2022-10-28T01:01:58;10.88;;;6.72;;
28862;SDS011;15994;51.796;13.006;2022-10-28T01:04:26;10.93;;;7.00;;
28862;SDS011;15994;51.796;13.006;2022-10-28T01:06:53;10.00;;;6.53;;
28862;SDS011;15994;51.796;13.006;2022-10-28T01:09:20;13.82;;;7.13;;
28862;SDS011;15994;51.796;13.006;2022-10-28T01:14:22;12.45;;;6.45;;
28862;SDS011;15994;51.796;13.006;2022-10-28T01:17:04;12.30;;;6.20;;
28862;SDS011;15994;51.796;13.006;2022-10-28T01:31:23;11.48;;;6.50;;
28862;SDS011;15994;51.796;13.006;2022-10-28T01:33:56;12.60;;;6.35;;
28862;SDS011;15994;51.796;13.006;2022-10-28T01:41:55;12.80;;;6.30;;
28862;SDS011;15994;51.796;13.006;2022-10-28T01:47:08;13.40;;;5.95;;
28862;SDS011;15994;51.796;13.006;2022-10-28T01:49:45;11.85;;;6.47;;
28862;SDS011;15994;51.796;13.006;2022-10-28T01:52:24;15.20;;;6.35;;
28862;SDS011;15994;51.796;13.006;2022-10-28T01:54:56;10.38;;;6.65;;
28862;SDS011;15994;51.796;13.006;2022-10-28T01:57:31;11.60;;;6.82;;
28862;SDS011;15994;51.796;13.006;2022-10-28T02:00:01;11.75;;;6.55;;
28862;SDS011;15994;51.796;13.006;2022-10-28T02:02:32;12.43;;;6.30;;
28862;SDS011;15994;51.796;13.006;2022-10-28T02:08:19;13.35;;;6.65;;
28862;SDS011;15994;51.796;13.006;2022-10-28T02:13:33;11.32;;;6.68;;
28862;SDS011;15994;51.796;13.006;2022-10-28T02:16:27;11.48;;;6.60;;
28862;SDS011;15994;51.796;13.006;2022-10-28T02:19:14;13.57;;;7.05;;
28862;SDS011;15994;51.796;13.006;2022-10-28T02:22:08;12.10;;;6.10;;
28862;SDS011;15994;51.796;13.006;2022-10-28T02:27:58;13.45;;;6.47;;
28862;SDS011;15994;51.796;13.006;2022-10-28T02:33:23;10.27;;;6.28;;
28862;SDS011;15994;51.796;13.006;2022-10-28T02:35:54;11.30;;;6.55;;
28862;SDS011;15994;51.796;13.006;2022-10-28T02:38:36;11.25;;;6.43;;
28862;SDS011;15994;51.796;13.006;2022-10-28T02:41:07;13.35;;;6.80;;
28862;SDS011;15994;51.796;13.006;2022-10-28T02:43:52;14.07;;;6.45;;
28862;SDS011;15994;51.796;13.006;2022-10-28T02:46:22;13.98;;;7.00;;
28862;SDS011;15994;51.796;13.006;2022-10-28T02:48:52;13.57;;;6.30;;
28862;SDS011;15994;51.796;13.006;2022-10-28T02:51:24;16.67;;;6.38;;
28862;SDS011;15994;51.796;13.006;2022-10-28T02:53:58;12.27;;;7.35;;
28862;SDS011;15994;51.796;13.006;2022-10-28T02:56:39;14.13;;;7.40;;
28862;SDS011;15994;51.796;13.006;2022-10-28T02:59:30;16.77;;;7.22;;
28862;SDS011;15994;51.796;13.006;2022-10-28T03:01:57;12.82;;;6.85;;
28862;SDS011;15994;51.796;13.006;2022-10-28T03:04:23;10.82;;;6.80;;
28862;SDS011;15994;51.796;13.006;2022-10-28T03:06:50;10.05;;;6.60;;
28862;SDS011;15994;51.796;13.006;2022-10-28T03:09:17;13.43;;;6.45;;
28862;SDS011;15994;51.796;13.006;2022-10-28T03:11:43;13.52;;;7.15;;
28862;SDS011;15994;51.796;13.006;2022-10-28T03:14:10;11.77;;;6.70;;
28862;SDS011;15994;51.796;13.006;2022-10-28T03:16:36;13.85;;;7.80;;
28862;SDS011;15994;51.796;13.006;2022-10-28T03:19:03;12.40;;;7.32;;
28862;SDS011;15994;51.796;13.006;2022-10-28T03:21:30;13.30;;;7.85;;
28862;SDS011;15994;51.796;13.006;2022-10-28T03:23:56;11.20;;;6.97;;
28862;SDS011;15994;51.796;13.006;2022-10-28T03:26:23;14.88;;;7.47;;
28862;SDS011;15994;51.796;13.006;2022-10-28T03:28:49;15.10;;;6.85;;
28862;SDS011;15994;51.796;13.006;2022-10-28T03:31:16;15.43;;;7.70;;
28862;SDS011;15994;51.796;13.006;2022-10-28T03:33:42;11.95;;;7.90;;
28862;SDS011;15994;51.796;13.006;2022-10-28T03:36:09;13.23;;;7.55;;
28862;SDS011;15994;51.796;13.006;2022-10-28T03:38:36;14.32;;;7.68;;
28862;SDS011;15994;51.796;13.006;2022-10-28T03:41:02;13.75;;;7.65;;
28862;SDS011;15994;51.796;13.006;2022-10-28T03:43:29;14.57;;;7.43;;
28862;SDS011;15994;51.796;13.006;2022-10-28T03:45:55;10.88;;;6.68;;
28862;SDS011;15994;51.796;13.006;2022-10-28T03:48:22;13.73;;;7.40;;
28862;SDS011;15994;51.796;13.006;2022-10-28T03:50:52;15.32;;;7.18;;
28862;SDS011;15994;51.796;13.006;2022-10-28T03:53:19;10.27;;;6.53;;
28862;SDS011;15994;51.796;13.006;2022-10-28T03:55:56;13.73;;;6.68;;
28862;SDS011;15994;51.796;13.006;2022-10-28T03:58:24;12.77;;;7.00;;
28862;SDS011;15994;51.796;13.006;2022-10-28T04:00:52;11.73;;;7.75;;
28862;SDS011;15994;51.796;13.006;2022-10-28T04:03:20;14.77;;;7.13;;
28862;SDS011;15994;51.796;13.006;2022-10-28T04:05:47;12.85;;;7.63;;
28862;SDS011;15994;51.796;13.006;2022-10-28T04:08:15;16.90;;;8.15;;
28862;SDS011;15994;51.796;13.006;2022-10-28T04:10:42;12.30;;;7.75;;
28862;SDS011;15994;51.796;13.006;2022-10-28T04:13:09;16.13;;;7.82;;
28862;SDS011;15994;51.796;13.006;2022-10-28T04:15:36;15.63;;;8.13;;
28862;SDS011;15994;51.796;13.006;2022-10-28T04:18:03;12.25;;;7.70;;
28862;SDS011;15994;51.796;13.006;2022-10-28T04:20:30;12.77;;;8.80;;
28862;SDS011;15994;51.796;13.006;2022-10-28T04:22:57;10.68;;;7.32;;
28862;SDS011;15994;51.796;13.006;2022-10-28T04:25:24;15.73;;;8.80;;
28862;SDS011;15994;51.796;13.006;2022-10-28T04:27:52;16.70;;;8.70;;
28862;SDS011;15994;51.796;13.006;2022-10-28T04:30:19;13.05;;;8.43;;
28862;SDS011;15994;51.796;13.006;2022-10-28T04:32:46;14.75;;;9.50;;
28862;SDS011;15994;51.796;13.006;2022-10-28T04:35:13;14.15;;;8.68;;
28862;SDS011;15994;51.796;13.006;2022-10-28T04:37:39;17.08;;;9.10;;
28862;SDS011;15994;51.796;13.006;2022-10-28T04:40:07;14.75;;;8.85;;
28862;SDS011;15994;51.796;13.006;2022-10-28T04:42:34;12.98;;;8.40;;
28862;SDS011;15994;51.796;13.006;2022-10-28T04:45:01;15.32;;;8.32;;
28862;SDS011;15994;51.796;13.006;2022-10-28T04:47:27;14.15;;;8.57;;
28862;SDS011;15994;51.796;13.006;2022-10-28T04:49:54;16.98;;;8.65;;
28862;SDS011;15994;51.796;13.006;2022-10-28T04:52:20;13.15;;;8.13;;
28862;SDS011;15994;51.796;13.006;2022-10-28T04:54:47;12.55;;;8.43;;
28862;SDS011;15994;51.796;13.006;2022-10-28T04:57:13;13.57;;;8.20;;
28862;SDS011;15994;51.796;13.006;2022-10-28T04:59:40;14.23;;;7.88;;
28862;SDS011;15994;51.796;13.006;2022-10-28T05:02:06;16.42;;;7.35;;
28862;SDS011;15994;51.796;13.006;2022-10-28T05:04:33;13.85;;;7.68;;
28862;SDS011;15994;51.796;13.006;2022-10-28T05:07:00;15.02;;;8.27;;
28862;SDS011;15994;51.796;13.006;2022-10-28T05:09:26;12.63;;;7.57;;
28862;SDS011;15994;51.796;13.006;2022-10-28T05:11:53;14.00;;;7.68;;
28862;SDS011;15994;51.796;13.006;2022-10-28T05:14:19;13.40;;;7.45;;
28862;SDS011;15994;51.796;13.006;2022-10-28T05:16:46;13.80;;;7.57;;
28862;SDS011;15994;51.796;13.006;2022-10-28T05:19:12;14.90;;;7.45;;
28862;SDS011;15994;51.796;13.006;2022-10-28T05:21:39;14.50;;;7.30;;
28862;SDS011;15994;51.796;13.006;2022-10-28T05:24:05;14.20;;;7.47;;
28862;SDS011;15994;51.796;13.006;2022-10-28T05:26:32;12.65;;;7.18;;
28862;SDS011;15994;51.796;13.006;2022-10-28T05:28:59;12.02;;;6.80;;
28862;SDS011;15994;51.796;13.006;2022-10-28T05:31:25;11.73;;;7.65;;
28862;SDS011;15994;51.796;13.006;2022-10-28T05:33:52;15.48;;;7.25;;
28862;SDS011;15994;51.796;13.006;2022-10-28T05:36:18;13.55;;;7.07;;
28862;SDS011;15994;51.796;13.006;2022-10-28T05:38:45;16.23;;;7.43;;
28862;SDS011;15994;51.796;13.006;2022-10-28T05:41:13;17.98;;;7.57;;
28862;SDS011;15994;51.796;13.006;2022-10-28T05:43:40;14.68;;;6.88;;
28862;SDS011;15994;51.796;13.006;2022-10-28T05:46:07;13.45;;;7.35;;
28862;SDS011;15994;51.796;13.006;2022-10-28T05:48:34;11.30;;;6.72;;
28862;SDS011;15994;51.796;13.006;2022-10-28T05:51:01;13.07;;;6.63;;
28862;SDS011;15994;51.796;13.006;2022-10-28T05:53:27;14.52;;;6.82;;
28862;SDS011;15994;51.796;13.006;2022-10-28T05:55:54;15.38;;;6.93;;
28862;SDS011;15994;51.796;13.006;2022-10-28T05:58:20;12.85;;;7.00;;
28862;SDS011;15994;51.796;13.006;2022-10-28T06:00:47;12.27;;;6.55;;
28862;SDS011;15994;51.796;13.006;2022-10-28T06:03:13;12.27;;;6.90;;
28862;SDS011;15994;51.796;13.006;2022-10-28T06:05:43;11.35;;;6.35;;
28862;SDS011;15994;51.796;13.006;2022-10-28T06:08:11;12.80;;;6.82;;
28862;SDS011;15994;51.796;13.006;2022-10-28T06:10:38;14.15;;;7.03;;
28862;SDS011;15994;51.796;13.006;2022-10-28T06:13:05;12.32;;;6.50;;
28862;SDS011;15994;51.796;13.006;2022-10-28T06:15:32;14.95;;;6.72;;
28862;SDS011;15994;51.796;13.006;2022-10-28T06:17:59;8.88;;;6.13;;
28862;SDS011;15994;51.796;13.006;2022-10-28T06:20:26;12.25;;;6.35;;
28862;SDS011;15994;51.796;13.006;2022-10-28T06:22:53;17.58;;;7.38;;
28862;SDS011;15994;51.796;13.006;2022-10-28T06:25:21;14.93;;;6.75;;
28862;SDS011;15994;51.796;13.006;2022-10-28T06:27:52;15.15;;;6.60;;
28862;SDS011;15994;51.796;13.006;2022-10-28T06:30:24;12.52;;;6.18;;
28862;SDS011;15994;51.796;13.006;2022-10-28T06:32:52;11.77;;;5.97;;
28862;SDS011;15994;51.796;13.006;2022-10-28T06:35:21;11.35;;;5.75;;
28862;SDS011;15994;51.796;13.006;2022-10-28T06:37:52;10.93;;;5.80;;
28862;SDS011;15994;51.796;13.006;2022-10-28T06:40:22;10.65;;;5.45;;
28862;SDS011;15994;51.796;13.006;2022-10-28T06:43:00;8.98;;;5.63;;
28862;SDS011;15994;51.796;13.006;2022-10-28T06:45:31;12.45;;;6.00;;
28862;SDS011;15994;51.796;13.006;2022-10-28T06:48:03;11.93;;;5.55;;
28862;SDS011;15994;51.796;13.006;2022-10-28T06:50:31;9.57;;;5.75;;
28862;SDS011;15994;51.796;13.006;2022-10-28T06:52:59;14.40;;;5.88;;
28862;SDS011;15994;51.796;13.006;2022-10-28T06:55:25;11.88;;;5.95;;
28862;SDS011;15994;51.796;13.006;2022-10-28T06:57:53;14.77;;;5.40;;
28862;SDS011;15994;51.796;13.006;2022-10-28T07:00:23;10.63;;;6.05;;
28862;SDS011;15994;51.796;13.006;2022-10-28T07:02:51;10.98;;;5.47;;
28862;SDS011;15994;51.796;13.006;2022-10-28T07:05:18;8.05;;;5.82;;
28862;SDS011;15994;51.796;13.006;2022-10-28T07:07:45;9.55;;;5.68;;
28862;SDS011;15994;51.796;13.006;2022-10-28T07:10:12;11.73;;;5.40;;
28862;SDS011;15994;51.796;13.006;2022-10-28T07:12:39;10.90;;;5.93;;
28862;SDS011;15994;51.796;13.006;2022-10-28T07:15:05;11.73;;;5.47;;
28862;SDS011;15994;51.796;13.006;2022-10-28T07:17:33;14.57;;;6.20;;
28862;SDS011;15994;51.796;13.006;2022-10-28T07:19:59;10.40;;;5.75;;
28862;SDS011;15994;51.796;13.006;2022-10-28T07:22:26;12.63;;;5.35;;
28862;SDS011;15994;51.796;13.006;2022-10-28T07:24:52;13.77;;;5.15;;
28862;SDS011;15994;51.796;13.006;2022-10-28T07:27:19;10.40;;;5.05;;
28862;SDS011;15994;51.796;13.006;2022-10-28T07:29:45;11.57;;;5.30;;
28862;SDS011;15994;51.796;13.006;2022-10-28T07:32:12;9.88;;;5.45;;
28862;SDS011;15994;51.796;13.006;2022-10-28T07:34:38;12.35;;;5.30;;
28862;SDS011;15994;51.796;13.006;2022-10-28T07:37:05;8.25;;;4.78;;
28862;SDS011;15994;51.796;13.006;2022-10-28T07:39:32;11.45;;;5.03;;
28862;SDS011;15994;51.796;13.006;2022-10-28T07:41:58;11.40;;;5.20;;
28862;SDS011;15994;51.796;13.006;2022-10-28T07:44:25;10.23;;;5.00;;
28862;SDS011;15994;51.796;13.006;2022-10-28T07:46:52;10.57;;;4.82;;
28862;SDS011;15994;51.796;13.006;2022-10-28T07:49:18;9.95;;;5.30;;
28862;SDS011;15994;51.796;13.006;2022-10-28T07:51:45;10.23;;;4.70;;
28862;SDS011;15994;51.796;13.006;2022-10-28T07:54:14;9.73;;;4.68;;
28862;SDS011;15994;51.796;13.006;2022-10-28T07:56:40;10.35;;;4.75;;
28862;SDS011;15994;51.796;13.006;2022-10-28T07:59:07;10.23;;;4.53;;
28862;SDS011;15994;51.796;13.006;2022-10-28T08:01:34;10.13;;;4.22;;
28862;SDS011;15994;51.796;13.006;2022-10-28T08:04:00;8.80;;;4.85;;
28862;SDS011;15994;51.796;13.006;2022-10-28T08:06:27;12.95;;;4.75;;
28862;SDS011;15994;51.796;13.006;2022-10-28T08:08:54;7.20;;;3.97;;
28862;SDS011;15994;51.796;13.006;2022-10-28T08:11:22;12.38;;;4.53;;
28862;SDS011;15994;51.796;13.006;2022-10-28T08:13:49;10.35;;;4.47;;
28862;SDS011;15994;51.796;13.006;2022-10-28T08:16:16;12.05;;;3.80;;
28862;SDS011;15994;51.796;13.006;2022-10-28T08:18:43;11.63;;;4.03;;
28862;SDS011;15994;51.796;13.006;2022-10-28T08:21:11;12.98;;;3.60;;
28862;SDS011;15994;51.796;13.006;2022-10-28T08:23:38;7.30;;;3.70;;
28862;SDS011;15994;51.796;13.006;2022-10-28T08:26:10;9.70;;;3.60;;
28862;SDS011;15994;51.796;13.006;2022-10-28T08:28:38;7.80;;;3.38;;
28862;SDS011;15994;51.796;13.006;2022-10-28T08:31:05;9.75;;;3.20;;
28862;SDS011;15994;51.796;13.006;2022-10-28T08:33:43;8.95;;;3.22;;
28862;SDS011;15994;51.796;13.006;2022-10-28T08:36:10;12.85;;;3.47;;
28862;SDS011;15994;51.796;13.006;2022-10-28T08:38:39;10.18;;;3.28;;
28862;SDS011;15994;51.796;13.006;2022-10-28T08:49:14;9.18;;;3.08;;
28862;SDS011;15994;51.796;13.006;2022-10-28T08:51:47;6.25;;;3.28;;
28862;SDS011;15994;51.796;13.006;2022-10-28T08:54:21;9.70;;;3.58;;
28862;SDS011;15994;51.796;13.006;2022-10-28T08:56:52;8.85;;;2.80;;
28862;SDS011;15994;51.796;13.006;2022-10-28T08:59:24;10.82;;;3.95;;
28862;SDS011;15994;51.796;13.006;2022-10-28T09:01:58;11.35;;;3.25;;
28862;SDS011;15994;51.796;13.006;2022-10-28T09:07:04;11.00;;;3.28;;
28862;SDS011;15994;51.796;13.006;2022-10-28T09:09:31;11.18;;;3.42;;
28862;SDS011;15994;51.796;13.006;2022-10-28T09:12:04;9.23;;;3.50;;
28862;SDS011;15994;51.796;13.006;2022-10-28T09:14:57;10.00;;;3.60;;
28862;SDS011;15994;51.796;13.006;2022-10-28T09:17:37;9.77;;;3.65;;
28862;SDS011;15994;51.796;13.006;2022-10-28T09:22:59;8.15;;;3.40;;
28862;SDS011;15994;51.796;13.006;2022-10-28T09:25:41;13.88;;;3.78;;
28862;SDS011;15994;51.796;13.006;2022-10-28T09:30:50;9.43;;;3.60;;
28862;SDS011;15994;51.796;13.006;2022-10-28T09:33:41;11.63;;;4.20;;
28862;SDS011;15994;51.796;13.006;2022-10-28T09:36:31;10.00;;;3.85;;
28862;SDS011;15994;51.796;13.006;2022-10-28T09:39:04;14.68;;;4.90;;
28862;SDS011;15994;51.796;13.006;2022-10-28T09:41:36;9.60;;;4.38;;
28862;SDS011;15994;51.796;13.006;2022-10-28T09:44:20;12.98;;;3.88;;
28862;SDS011;15994;51.796;13.006;2022-10-28T09:46:53;9.60;;;3.95;;
28862;SDS011;15994;51.796;13.006;2022-10-28T09:49:26;17.08;;;3.60;;
28862;SDS011;15994;51.796;13.006;2022-10-28T09:54:34;16.15;;;4.00;;
28862;SDS011;15994;51.796;13.006;2022-10-28T09:57:04;12.60;;;3.50;;
28862;SDS011;15994;51.796;13.006;2022-10-28T09:59:31;13.05;;;3.40;;
28862;SDS011;15994;51.796;13.006;2022-10-28T10:01:59;12.57;;;3.40;;
28862;SDS011;15994;51.796;13.006;2022-10-28T10:04:28;9.20;;;3.33;;
28862;SDS011;15994;51.796;13.006;2022-10-28T10:07:09;7.90;;;2.78;;
28862;SDS011;15994;51.796;13.006;2022-10-28T10:09:41;12.18;;;3.40;;
28862;SDS011;15994;51.796;13.006;2022-10-28T10:12:09;10.35;;;2.83;;
28862;SDS011;15994;51.796;13.006;2022-10-28T10:14:47;10.02;;;2.90;;
28862;SDS011;15994;51.796;13.006;2022-10-28T10:17:19;14.48;;;3.08;;
28862;SDS011;15994;51.796;13.006;2022-10-28T10:20:03;10.77;;;3.20;;
28862;SDS011;15994;51.796;13.006;2022-10-28T10:23:04;7.28;;;2.58;;
28862;SDS011;15994;51.796;13.006;2022-10-28T10:25:24;10.30;;;3.08;;
28862;SDS011;15994;51.796;13.006;2022-10-28T10:27:59;6.72;;;2.50;;
28862;SDS011;15994;51.796;13.006;2022-10-28T10:30:32;8.77;;;3.03;;
28862;SDS011;15994;51.796;13.006;2022-10-28T10:33:03;8.70;;;2.50;;
28862;SDS011;15994;51.796;13.006;2022-10-28T10:35:32;10.32;;;2.70;;
28862;SDS011;15994;51.796;13.006;2022-10-28T10:38:03;6.57;;;2.20;;
28862;SDS011;15994;51.796;13.006;2022-10-28T10:40:36;8.45;;;2.63;;
28862;SDS011;15994;51.796;13.006;2022-10-28T10:43:31;10.43;;;3.08;;
28862;SDS011;15994;51.796;13.006;2022-10-28T10:48:33;9.30;;;2.55;;
28862;SDS011;15994;51.796;13.006;2022-10-28T10:51:07;7.70;;;2.60;;
28862;SDS011;15994;51.796;13.006;2022-10-28T10:53:54;9.10;;;2.90;;
28862;SDS011;15994;51.796;13.006;2022-10-28T10:56:28;10.30;;;2.75;;
28862;SDS011;15994;51.796;13.006;2022-10-28T10:58:57;11.85;;;2.88;;
28862;SDS011;15994;51.796;13.006;2022-10-28T11:01:28;10.20;;;2.17;;
28862;SDS011;15994;51.796;13.006;2022-10-28T11:04:00;8.90;;;2.70;;
28862;SDS011;15994;51.796;13.006;2022-10-28T11:06:33;8.73;;;2.83;;
28862;SDS011;15994;51.796;13.006;2022-10-28T11:09:04;10.70;;;2.80;;
28862;SDS011;15994;51.796;13.006;2022-10-28T11:11:39;9.15;;;2.88;;
28862;SDS011;15994;51.796;13.006;2022-10-28T11:14:17;7.63;;;2.72;;
28862;SDS011;15994;51.796;13.006;2022-10-28T11:19:20;11.00;;;3.08;;
28862;SDS011;15994;51.796;13.006;2022-10-28T11:22:49;16.80;;;3.45;;
28862;SDS011;15994;51.796;13.006;2022-10-28T11:30:17;10.60;;;2.85;;
28862;SDS011;15994;51.796;13.006;2022-10-28T11:33:05;12.65;;;2.55;;
28862;SDS011;15994;51.796;13.006;2022-10-28T11:38:24;8.07;;;2.35;;
28862;SDS011;15994;51.796;13.006;2022-10-28T11:41:13;7.97;;;2.58;;
28862;SDS011;15994;51.796;13.006;2022-10-28T11:43:57;10.23;;;2.28;;
28862;SDS011;15994;51.796;13.006;2022-10-28T12:06:02;8.55;;;2.50;;
28862;SDS011;15994;51.796;13.006;2022-10-28T12:11:19;9.50;;;2.53;;
28862;SDS011;15994;51.796;13.006;2022-10-28T12:14:09;9.13;;;2.45;;
28862;SDS011;15994;51.796;13.006;2022-10-28T12:16:51;9.55;;;2.50;;
28862;SDS011;15994;51.796;13.006;2022-10-28T12:19:34;9.63;;;2.25;;
28862;SDS011;15994;51.796;13.006;2022-10-28T12:22:13;12.23;;;2.55;;
28862;SDS011;15994;51.796;13.006;2022-10-28T12:24:47;12.10;;;2.58;;
28862;SDS011;15994;51.796;13.006;2022-10-28T12:27:21;9.75;;;2.58;;
28862;SDS011;15994;51.796;13.006;2022-10-28T12:29:58;10.32;;;3.17;;
28862;SDS011;15994;51.796;13.006;2022-10-28T12:32:31;11.25;;;3.13;;
28862;SDS011;15994;51.796;13.006;2022-10-28T12:35:43;10.50;;;3.47;;
28862;SDS011;15994;51.796;13.006;2022-10-28T12:37:55;12.98;;;3.15;;
28862;SDS011;15994;51.796;13.006;2022-10-28T12:40:38;8.82;;;3.30;;
28862;SDS011;15994;51.796;13.006;2022-10-28T12:43:22;9.38;;;3.17;;
28862;SDS011;15994;51.796;13.006;2022-10-28T12:48:55;10.00;;;2.85;;
28862;SDS011;15994;51.796;13.006;2022-10-28T12:51:29;9.02;;;3.10;;
28862;SDS011;15994;51.796;13.006;2022-10-28T12:54:05;9.57;;;2.90;;
28862;SDS011;15994;51.796;13.006;2022-10-28T12:57:00;12.85;;;3.15;;
28862;SDS011;15994;51.796;13.006;2022-10-28T12:59:40;6.75;;;2.70;;
28862;SDS011;15994;51.796;13.006;2022-10-28T13:02:17;7.50;;;2.58;;
28862;SDS011;15994;51.796;13.006;2022-10-28T13:04:47;10.73;;;2.80;;
28862;SDS011;15994;51.796;13.006;2022-10-28T13:07:25;12.52;;;2.45;;
28862;SDS011;15994;51.796;13.006;2022-10-28T13:21:41;11.00;;;2.28;;
28862;SDS011;15994;51.796;13.006;2022-10-28T13:26:55;9.52;;;2.35;;
28862;SDS011;15994;51.796;13.006;2022-10-28T13:31:50;8.35;;;2.08;;
28862;SDS011;15994;51.796;13.006;2022-10-28T13:34:19;7.80;;;2.35;;
28862;SDS011;15994;51.796;13.006;2022-10-28T13:36:54;9.88;;;2.33;;
28862;SDS011;15994;51.796;13.006;2022-10-28T13:44:50;8.02;;;2.47;;
28862;SDS011;15994;51.796;13.006;2022-10-28T13:52:32;11.93;;;2.72;;
28862;SDS011;15994;51.796;13.006;2022-10-28T13:55:24;14.38;;;2.80;;
28862;SDS011;15994;51.796;13.006;2022-10-28T13:58:19;9.05;;;2.40;;
28862;SDS011;15994;51.796;13.006;2022-10-28T14:00:48;11.75;;;2.65;;
28862;SDS011;15994;51.796;13.006;2022-10-28T14:03:16;7.93;;;2.25;;
28862;SDS011;15994;51.796;13.006;2022-10-28T14:08:29;8.95;;;2.63;;
28862;SDS011;15994;51.796;13.006;2022-10-28T14:11:06;11.35;;;2.53;;
28862;SDS011;15994;51.796;13.006;2022-10-28T14:13:37;11.10;;;2.53;;
28862;SDS011;15994;51.796;13.006;2022-10-28T14:18:50;8.93;;;2.53;;
28862;SDS011;15994;51.796;13.006;2022-10-28T14:21:24;12.00;;;2.63;;
28862;SDS011;15994;51.796;13.006;2022-10-28T14:24:07;6.85;;;2.72;;
28862;SDS011;15994;51.796;13.006;2022-10-28T14:29:30;9.88;;;2.60;;
28862;SDS011;15994;51.796;13.006;2022-10-28T14:40:18;11.15;;;2.97;;
28862;SDS011;15994;51.796;13.006;2022-10-28T14:50:46;9.02;;;2.50;;
28862;SDS011;15994;51.796;13.006;2022-10-28T14:53:17;6.55;;;2.40;;
28862;SDS011;15994;51.796;13.006;2022-10-28T14:55:51;12.10;;;3.30;;
28862;SDS011;15994;51.796;13.006;2022-10-28T14:58:29;11.13;;;3.53;;
28862;SDS011;15994;51.796;13.006;2022-10-28T15:03:43;11.63;;;3.42;;
28862;SDS011;15994;51.796;13.006;2022-10-28T15:06:22;9.65;;;2.90;;
28862;SDS011;15994;51.796;13.006;2022-10-28T15:08:52;8.80;;;3.10;;
28862;SDS011;15994;51.796;13.006;2022-10-28T15:11:20;9.70;;;3.38;;
28862;SDS011;15994;51.796;13.006;2022-10-28T15:13:50;13.02;;;3.20;;
28862;SDS011;15994;51.796;13.006;2022-10-28T15:16:22;8.77;;;3.38;;
28862;SDS011;15994;51.796;13.006;2022-10-28T15:18:51;12.32;;;3.28;;
28862;SDS011;15994;51.796;13.006;2022-10-28T15:21:20;14.95;;;3.65;;
28862;SDS011;15994;51.796;13.006;2022-10-28T15:23:57;11.10;;;3.10;;
28862;SDS011;15994;51.796;13.006;2022-10-28T15:26:25;10.75;;;3.03;;
28862;SDS011;15994;51.796;13.006;2022-10-28T15:28:51;11.07;;;3.67;;
28862;SDS011;15994;51.796;13.006;2022-10-28T15:31:19;11.65;;;3.45;;
28862;SDS011;15994;51.796;13.006;2022-10-28T15:33:46;9.25;;;3.15;;
28862;SDS011;15994;51.796;13.006;2022-10-28T15:38:42;11.98;;;3.22;;
28862;SDS011;15994;51.796;13.006;2022-10-28T15:43:52;10.20;;;3.17;;
28862;SDS011;15994;51.796;13.006;2022-10-28T15:46:21;10.20;;;3.33;;
28862;SDS011;15994;51.796;13.006;2022-10-28T15:48:58;11.63;;;3.38;;
28862;SDS011;15994;51.796;13.006;2022-10-28T15:51:26;12.05;;;3.78;;
28862;SDS011;15994;51.796;13.006;2022-10-28T15:53:53;9.63;;;3.72;;
28862;SDS011;15994;51.796;13.006;2022-10-28T15:56:52;12.27;;;4.03;;
28862;SDS011;15994;51.796;13.006;2022-10-28T15:59:20;15.65;;;3.88;;
28862;SDS011;15994;51.796;13.006;2022-10-28T16:01:49;10.38;;;3.88;;
28862;SDS011;15994;51.796;13.006;2022-10-28T16:06:53;16.27;;;4.40;;
28862;SDS011;15994;51.796;13.006;2022-10-28T16:09:29;13.07;;;4.35;;
28862;SDS011;15994;51.796;13.006;2022-10-28T16:12:19;10.30;;;4.63;;
28862;SDS011;15994;51.796;13.006;2022-10-28T16:14:58;13.35;;;5.35;;
28862;SDS011;15994;51.796;13.006;2022-10-28T16:17:27;10.52;;;4.10;;
28862;SDS011;15994;51.796;13.006;2022-10-28T16:19:56;14.35;;;4.30;;
28862;SDS011;15994;51.796;13.006;2022-10-28T16:22:28;12.13;;;5.32;;
28862;SDS011;15994;51.796;13.006;2022-10-28T16:24:56;16.45;;;5.80;;
28862;SDS011;15994;51.796;13.006;2022-10-28T16:27:27;17.77;;;6.38;;
28862;SDS011;15994;51.796;13.006;2022-10-28T16:29:55;17.08;;;5.30;;
28862;SDS011;15994;51.796;13.006;2022-10-28T16:32:27;13.30;;;4.78;;
28862;SDS011;15994;51.796;13.006;2022-10-28T16:34:56;10.63;;;3.83;;
28862;SDS011;15994;51.796;13.006;2022-10-28T16:37:25;12.98;;;5.68;;
28862;SDS011;15994;51.796;13.006;2022-10-28T16:39:56;15.95;;;4.55;;
28862;SDS011;15994;51.796;13.006;2022-10-28T16:42:22;10.38;;;3.65;;
28862;SDS011;15994;51.796;13.006;2022-10-28T16:44:49;13.88;;;4.00;;
28862;SDS011;15994;51.796;13.006;2022-10-28T16:47:20;9.02;;;3.50;;
28862;SDS011;15994;51.796;13.006;2022-10-28T16:49:49;11.43;;;3.90;;
28862;SDS011;15994;51.796;13.006;2022-10-28T16:52:19;11.27;;;4.15;;
28862;SDS011;15994;51.796;13.006;2022-10-28T16:54:48;11.95;;;4.85;;
28862;SDS011;15994;51.796;13.006;2022-10-28T16:57:16;12.90;;;4.18;;
28862;SDS011;15994;51.796;13.006;2022-10-28T16:59:44;12.07;;;4.20;;
28862;SDS011;15994;51.796;13.006;2022-10-28T17:04:57;12.07;;;3.63;;
28862;SDS011;15994;51.796;13.006;2022-10-28T17:07:25;13.23;;;3.72;;
28862;SDS011;15994;51.796;13.006;2022-10-28T17:09:52;12.05;;;4.15;;
28862;SDS011;15994;51.796;13.006;2022-10-28T17:12:22;10.93;;;3.50;;
28862;SDS011;15994;51.796;13.006;2022-10-28T17:14:51;12.57;;;3.75;;
28862;SDS011;15994;51.796;13.006;2022-10-28T17:17:17;11.73;;;3.47;;
28862;SDS011;15994;51.796;13.006;2022-10-28T17:19:44;13.13;;;3.75;;
28862;SDS011;15994;51.796;13.006;2022-10-28T17:22:11;11.68;;;3.33;;
28862;SDS011;15994;51.796;13.006;2022-10-28T17:24:38;11.10;;;3.88;;
28862;SDS011;15994;51.796;13.006;2022-10-28T17:27:05;12.77;;;3.88;;
28862;SDS011;15994;51.796;13.006;2022-10-28T17:29:32;13.48;;;3.65;;
28862;SDS011;15994;51.796;13.006;2022-10-28T17:31:59;13.70;;;3.70;;